Menominee, MI

6:36 AM CDT on July 29, 2016 (GMT -0500)
Menominee-Marinette Twin County

Weather History for KMNM - January, 2013

Change the Weather History Date:

Friday, January 4, 2013

  Actual Average Record
Temperature  
Mean Temperature 24 °F -  
Max Temperature 33 °F 26 °F 44 °F (1987)
Min Temperature 14 °F 10 °F -11 °F (1959)
Degree Days  
Heating Degree Days 42    
Moisture  
Dew Point 14 °F    
Average Humidity 69    
Maximum Humidity 86    
Minimum Humidity 52    
Precipitation  
Precipitation 0.00 in - - ()
Sea Level Pressure  
Sea Level Pressure 29.97 in    
Wind  
Wind Speed 10 mph (West)    
Max Wind Speed 15 mph    
Max Gust Speed 25 mph    
Visibility 10 miles    
Events      
Averages and records for this station are not official NWS values.
T = Trace of Precipitation, MM = Missing Value Source: NWS Daily Summary

Daily Weather History Graph

Daily Weather History Graph

Search for Another Location

Airport or City:

Trip Planner

Search our weather history database for the weather conditions in past years. The results will help you decide how hot, cold, wet, or windy it might be!

Date:

Astronomy

Jan. 04, 2013 Rise Set
Actual Time 7:29 AM CST 4:22 PM CST
Civil Twilight 6:55 AM CST 4:56 PM CST
Nautical Twilight 6:18 AM CST 5:33 PM CST
Astronomical Twilight 5:42 AM CST 6:08 PM CST
Moon No Moon Rise 10:50 AM CST (1/4)
Length of Visible Light 10h 00m
Length of Day
8h 53m
Waning Gibbous, 55% of the Moon is Illuminated
Jan 4
Waning Gibbous
Jan 4
Last Quarter
Jan 11
New
Jan 18
First Quarter
Jan 26
Full

Hourly Weather History & Observations

Time (CST) Temp. Windchill Dew Point Humidity Pressure Visibility Wind Dir Wind Speed Gust Speed Precip Events Conditions
12:15 AM 17.6 °F 3.7 °F 6.8 °F 63% 29.93 in 10.0 mi West 13.8 mph 25.3 mph N/A   Clear
12:35 AM 15.8 °F 2.1 °F 8.6 °F 73% 29.92 in 10.0 mi West 12.7 mph 21.9 mph N/A   Clear
12:55 AM 15.8 °F 1.4 °F 8.6 °F 73% 29.91 in 10.0 mi WSW 13.8 mph 24.2 mph N/A   Clear
1:15 AM 15.8 °F 0.9 °F 8.6 °F 73% 29.90 in 10.0 mi WSW 15.0 mph 19.6 mph N/A   Clear
1:35 AM 15.8 °F 1.4 °F 10.4 °F 79% 29.90 in 10.0 mi WSW 13.8 mph 20.7 mph N/A   Clear
1:55 AM 15.8 °F 1.4 °F 10.4 °F 79% 29.90 in 10.0 mi West 13.8 mph 20.7 mph N/A   Clear
2:15 AM 17.6 °F 5.0 °F 10.4 °F 73% 29.90 in 10.0 mi West 11.5 mph 23.0 mph N/A   Clear
2:35 AM 17.6 °F 5.0 °F 10.4 °F 73% 29.90 in 10.0 mi West 11.5 mph 21.9 mph N/A   Clear
2:55 AM 17.6 °F 4.3 °F 12.2 °F 79% 29.91 in 10.0 mi West 12.7 mph 19.6 mph N/A   Clear
3:15 AM 17.6 °F 6.4 °F 10.4 °F 73% 29.92 in 10.0 mi West 9.2 mph 18.4 mph N/A   Clear
3:35 AM 17.6 °F 5.0 °F 10.4 °F 73% 29.92 in 10.0 mi West 11.5 mph - N/A   Clear
3:55 AM 17.6 °F 8.2 °F 10.4 °F 73% 29.92 in 10.0 mi West 6.9 mph - N/A   Clear
4:15 AM 15.8 °F 4.2 °F 10.4 °F 79% 29.92 in 10.0 mi West 9.2 mph - N/A   Clear
4:55 AM 15.8 °F 5.1 °F 8.6 °F 73% 29.90 in 10.0 mi WSW 8.1 mph - N/A   Clear
5:35 AM 15.8 °F 4.2 °F 8.6 °F 73% 29.91 in 10.0 mi WSW 9.2 mph - N/A   Clear
5:55 AM 14.0 °F 2.9 °F 8.6 °F 79% 29.90 in 10.0 mi WSW 8.1 mph - N/A   Clear
6:15 AM 14.0 °F 2.9 °F 6.8 °F 73% 29.91 in 10.0 mi West 8.1 mph - N/A   Clear
6:35 AM 14.0 °F 3.9 °F 8.6 °F 79% 29.91 in 10.0 mi West 6.9 mph - N/A   Clear
6:55 AM 14.0 °F 3.9 °F 8.6 °F 79% 29.91 in 10.0 mi West 6.9 mph - N/A   Clear
7:15 AM 14.0 °F 2.0 °F 8.6 °F 79% 29.90 in 10.0 mi West 9.2 mph - N/A   Clear
7:35 AM 14.0 °F 2.9 °F 8.6 °F 79% 29.91 in 10.0 mi West 8.1 mph - N/A   Clear
7:55 AM 14.0 °F 3.9 °F 8.6 °F 79% 29.91 in 10.0 mi West 6.9 mph - N/A   Clear
8:15 AM 15.8 °F 5.1 °F 8.6 °F 73% 29.90 in 10.0 mi West 8.1 mph - N/A   Clear
8:35 AM 15.8 °F 6.1 °F 10.4 °F 79% 29.91 in 10.0 mi West 6.9 mph - N/A   Clear
8:55 AM 17.6 °F 6.4 °F 12.2 °F 79% 29.93 in 10.0 mi West 9.2 mph - N/A   Clear
9:15 AM 17.6 °F 7.3 °F 12.2 °F 79% 29.93 in 10.0 mi West 8.1 mph - N/A   Clear
9:35 AM 17.6 °F 9.3 °F 14.0 °F 86% 29.94 in 10.0 mi West 5.8 mph - N/A   Clear
9:55 AM 19.4 °F 8.6 °F 14.0 °F 80% 29.94 in 10.0 mi WNW 9.2 mph - N/A   Clear
10:15 AM 21.2 °F 11.7 °F 14.0 °F 74% 29.95 in 10.0 mi WNW 8.1 mph 17.3 mph N/A   Clear
10:35 AM 21.2 °F 10.9 °F 12.2 °F 68% 29.94 in 10.0 mi West 9.2 mph - N/A   Clear
10:55 AM 23.0 °F 13.9 °F 14.0 °F 68% 29.93 in 10.0 mi West 8.1 mph 17.3 mph N/A   Clear
11:15 AM 24.8 °F 17.9 °F 12.2 °F 59% 29.93 in 10.0 mi West 5.8 mph - N/A   Clear
11:35 AM 24.8 °F 15.3 °F 14.0 °F 64% 29.92 in 10.0 mi West 9.2 mph - N/A   Clear
11:55 AM 26.6 °F 19.1 °F 15.8 °F 64% 29.92 in 10.0 mi West 6.9 mph - N/A   Clear
12:15 PM 26.6 °F 16.8 °F 17.6 °F 69% 29.91 in 10.0 mi West 10.4 mph - N/A   Clear
12:35 PM 28.4 °F 18.0 °F 17.6 °F 64% 29.90 in 10.0 mi West 12.7 mph 17.3 mph N/A   Clear
12:55 PM 28.4 °F 19.7 °F 15.8 °F 59% 29.90 in 10.0 mi West 9.2 mph 18.4 mph N/A   Clear
1:15 PM 30.2 °F 21.9 °F 15.8 °F 55% 29.90 in 10.0 mi West 9.2 mph 18.4 mph N/A   Clear
1:35 PM 30.2 °F 21.9 °F 15.8 °F 55% 29.91 in 10.0 mi West 9.2 mph - N/A   Clear
1:55 PM 30.2 °F 21.3 °F 17.6 °F 60% 29.92 in 10.0 mi West 10.4 mph 16.1 mph N/A   Clear
2:15 PM 32.0 °F 24.2 °F 17.6 °F 55% 29.92 in 10.0 mi West 9.2 mph - N/A   Clear
2:35 PM 33.8 °F 26.4 °F 19.4 °F 56% 29.93 in 10.0 mi West 9.2 mph 16.1 mph N/A   Clear
2:55 PM 33.8 °F 28.6 °F 19.4 °F 56% 29.93 in 10.0 mi West 5.8 mph - N/A   Clear
3:15 PM 33.8 °F 27.0 °F 17.6 °F 52% 29.94 in 10.0 mi West 8.1 mph - N/A   Clear
3:35 PM 33.8 °F 27.7 °F 17.6 °F 52% 29.95 in 10.0 mi WSW 6.9 mph - N/A   Clear
3:55 PM 32.0 °F 24.8 °F 17.6 °F 55% 29.96 in 10.0 mi WSW 8.1 mph - N/A   Clear
4:15 PM 30.2 °F 22.6 °F 17.6 °F 60% 29.97 in 10.0 mi WSW 8.1 mph - N/A   Clear
4:35 PM 30.2 °F 22.6 °F 17.6 °F 60% 29.98 in 10.0 mi WSW 8.1 mph - N/A   Clear
4:55 PM 30.2 °F 23.4 °F 17.6 °F 60% 29.98 in 10.0 mi WSW 6.9 mph - N/A   Clear
5:15 PM 28.4 °F 19.7 °F 19.4 °F 69% 29.99 in 10.0 mi WSW 9.2 mph - N/A   Clear
5:35 PM 28.4 °F 19.7 °F 17.6 °F 64% 30.00 in 10.0 mi WSW 9.2 mph - N/A   Clear
5:55 PM 28.4 °F 21.2 °F 17.6 °F 64% 30.02 in 10.0 mi WSW 6.9 mph - N/A   Clear
6:15 PM 28.4 °F 21.2 °F 17.6 °F 64% 30.03 in 10.0 mi West 6.9 mph - N/A   Clear
6:35 PM 28.4 °F 21.2 °F 17.6 °F 64% 30.04 in 10.0 mi WSW 6.9 mph - N/A   Clear
6:55 PM 28.4 °F 22.2 °F 19.4 °F 69% 30.05 in 10.0 mi West 5.8 mph - N/A   Clear
7:15 PM 28.4 °F 21.2 °F 15.8 °F 59% 30.06 in 10.0 mi West 6.9 mph - N/A   Clear
7:35 PM 26.6 °F 19.1 °F 17.6 °F 69% 30.06 in 10.0 mi West 6.9 mph - N/A   Clear
7:55 PM 26.6 °F 19.1 °F 17.6 °F 69% 30.07 in 10.0 mi West 6.9 mph - N/A   Clear
8:15 PM 26.6 °F 18.2 °F 17.6 °F 69% 30.07 in 10.0 mi West 8.1 mph - N/A   Clear
8:35 PM 26.6 °F 18.2 °F 17.6 °F 69% 30.07 in 10.0 mi West 8.1 mph - N/A   Clear
8:55 PM 26.6 °F 18.2 °F 17.6 °F 69% 30.08 in 10.0 mi West 8.1 mph - N/A   Clear
9:15 PM 26.6 °F 19.1 °F 15.8 °F 64% 30.09 in 10.0 mi West 6.9 mph - N/A   Clear
9:35 PM 24.8 °F 20.5 °F 15.8 °F 69% 30.09 in 10.0 mi NW 3.5 mph - N/A   Clear
9:55 PM 24.8 °F - 15.8 °F 69% 30.09 in 10.0 mi Calm Calm - N/A   Clear
10:15 PM 24.8 °F 20.5 °F 17.6 °F 74% 30.10 in 10.0 mi West 3.5 mph - N/A   Clear
10:35 PM 23.0 °F 18.4 °F 15.8 °F 74% 30.11 in 10.0 mi West 3.5 mph - N/A   Clear
10:55 PM 23.0 °F 18.4 °F 15.8 °F 74% 30.11 in 10.0 mi West 3.5 mph - N/A   Clear
11:15 PM 21.2 °F 16.4 °F 15.8 °F 80% 30.11 in 10.0 mi West 3.5 mph - N/A   Clear
11:35 PM 21.2 °F 16.4 °F 15.8 °F 80% 30.12 in 10.0 mi West 3.5 mph - N/A   Clear
11:55 PM 21.2 °F - 14.0 °F 74% 30.12 in 10.0 mi Calm Calm - N/A   Clear